Time,TemperatureF,DewpointF,PressureIn,WindDirection,WindDirectionDegrees,WindSpeedMPH,WindSpeedGustMPH,Humidity,HourlyPrecipIn,Conditions,Clouds,dailyrainin,SolarRadiationWatts/m^2,SoftwareType,DateUTC
2013-03-16 00:02:00,58.0,28.0,-100.00,ENE,65,4.0,7.0,32,0.00,,,0.00,0.000000,,2013-03-16 07:02:00,
2013-03-16 00:11:00,58.0,28.0,-100.00,ENE,65,4.0,7.0,32,0.00,,,0.00,0.000000,,2013-03-16 07:11:00,
2013-03-16 00:42:00,55.0,31.0,-100.00,East,86,0.0,7.0,39,0.00,,,0.00,0.000000,,2013-03-16 07:42:00,
2013-03-16 00:52:00,55.0,31.0,-100.00,East,86,0.0,7.0,39,0.00,,,0.00,0.000000,,2013-03-16 07:52:00,
2013-03-16 01:42:00,53.0,31.0,-100.00,SSE,159,0.0,6.0,42,0.00,,,0.00,0.000000,,2013-03-16 08:42:00,
2013-03-16 01:52:00,53.0,31.0,-100.00,SSE,159,0.0,6.0,42,0.00,,,0.00,0.000000,,2013-03-16 08:52:00,
2013-03-16 02:42:00,55.0,30.0,-100.00,East,92,3.0,7.0,38,-99.99,,,0.00,0.000000,,2013-03-16 09:42:00,
2013-03-16 02:53:00,55.0,30.0,-100.00,East,92,3.0,7.0,38,-99.99,,,0.00,0.000000,,2013-03-16 09:53:00,
2013-03-16 03:03:00,55.0,30.0,-100.00,East,92,3.0,7.0,38,-99.99,,,0.00,0.000000,,2013-03-16 10:03:00,
2013-03-16 03:12:00,55.0,30.0,-100.00,East,92,3.0,7.0,38,-99.99,,,0.00,0.000000,,2013-03-16 10:12:00,
2013-03-16 03:42:00,56.0,30.0,-100.00,NE,51,3.0,8.0,37,0.00,,,0.00,0.000000,,2013-03-16 10:42:00,
2013-03-16 03:53:00,56.0,30.0,-100.00,NE,51,3.0,8.0,37,0.00,,,0.00,0.000000,,2013-03-16 10:53:00,
2013-03-16 04:03:00,56.0,30.0,-100.00,NE,51,3.0,8.0,37,0.00,,,0.00,0.000000,,2013-03-16 11:03:00,
2013-03-16 04:12:00,56.0,30.0,-100.00,NE,51,3.0,8.0,37,0.00,,,0.00,0.000000,,2013-03-16 11:12:00,
2013-03-16 04:43:00,54.0,30.0,-100.00,East,85,3.0,7.0,40,0.00,,,0.00,0.000000,,2013-03-16 11:43:00,
2013-03-16 04:52:00,54.0,30.0,-100.00,East,85,3.0,7.0,40,0.00,,,0.00,0.000000,,2013-03-16 11:52:00,
2013-03-16 05:02:00,54.0,30.0,-100.00,East,85,3.0,7.0,40,0.00,,,0.00,0.000000,,2013-03-16 12:02:00,
2013-03-16 05:12:00,54.0,30.0,-100.00,East,85,3.0,7.0,40,0.00,,,0.00,0.000000,,2013-03-16 12:12:00,
2013-03-16 05:43:00,54.0,30.0,-100.00,ENE,77,1.0,7.0,39,0.00,,,0.00,0.000000,,2013-03-16 12:43:00,
2013-03-16 05:52:00,54.0,30.0,-100.00,ENE,77,1.0,7.0,39,0.00,,,0.00,0.000000,,2013-03-16 12:52:00,
2013-03-16 06:02:00,54.0,30.0,-100.00,ENE,77,1.0,7.0,39,0.00,,,0.00,0.000000,,2013-03-16 13:02:00,
2013-03-16 06:12:00,54.0,30.0,-100.00,ENE,77,1.0,7.0,39,0.00,,,0.00,0.000000,,2013-03-16 13:12:00,
2013-03-16 06:42:00,54.0,28.0,-100.00,ENE,57,0.0,7.0,37,0.00,,,0.00,0.000000,,2013-03-16 13:42:00,
2013-03-16 06:53:00,54.0,28.0,-100.00,ENE,57,0.0,7.0,37,0.00,,,0.00,0.000000,,2013-03-16 13:53:00,
2013-03-16 07:02:00,54.0,28.0,-100.00,ENE,57,0.0,7.0,37,0.00,,,0.00,0.000000,,2013-03-16 14:02:00,
2013-03-16 07:11:00,54.0,28.0,-100.00,ENE,57,0.0,7.0,37,0.00,,,0.00,0.000000,,2013-03-16 14:11:00,
2013-03-16 07:42:00,50.0,27.0,-100.00,NNW,344,0.0,4.0,41,0.00,,,0.00,1.000000,,2013-03-16 14:42:00,
2013-03-16 07:52:00,50.0,27.0,-100.00,NNW,344,0.0,4.0,41,0.00,,,0.00,1.000000,,2013-03-16 14:52:00,
2013-03-16 08:02:00,50.0,27.0,-100.00,NNW,344,0.0,4.0,41,0.00,,,0.00,1.000000,,2013-03-16 15:02:00,
2013-03-16 08:43:00,58.0,33.0,-100.00,East,101,2.0,7.0,38,-99.99,,,0.00,112.000000,,2013-03-16 15:43:00,
2013-03-16 08:53:00,58.0,33.0,-100.00,East,101,2.0,7.0,38,-99.99,,,0.00,112.000000,,2013-03-16 15:53:00,
2013-03-16 09:02:00,58.0,33.0,-100.00,East,101,2.0,7.0,38,-99.99,,,0.00,112.000000,,2013-03-16 16:02:00,
2013-03-16 09:12:00,58.0,33.0,-100.00,East,101,2.0,7.0,38,-99.99,,,0.00,112.000000,,2013-03-16 16:12:00,
2013-03-16 09:43:00,69.0,36.0,-100.00,ENE,72,0.0,5.0,30,0.00,,,0.00,364.000000,,2013-03-16 16:43:00,
2013-03-16 09:53:00,69.0,36.0,-100.00,ENE,72,0.0,5.0,30,0.00,,,0.00,364.000000,,2013-03-16 16:53:00,
2013-03-16 10:43:00,75.0,24.0,-100.00,WNW,285,1.0,5.0,15,0.00,,,0.00,564.000000,,2013-03-16 17:43:00,
2013-03-16 10:53:00,75.0,24.0,-100.00,WNW,285,1.0,5.0,15,0.00,,,0.00,564.000000,,2013-03-16 17:53:00,
2013-03-16 11:02:00,75.0,24.0,-100.00,WNW,285,1.0,5.0,15,0.00,,,0.00,564.000000,,2013-03-16 18:02:00,
2013-03-16 11:12:00,75.0,24.0,-100.00,WNW,285,1.0,5.0,15,0.00,,,0.00,564.000000,,2013-03-16 18:12:00,
2013-03-16 11:43:00,77.0,33.0,-100.00,West,274,4.0,9.0,20,0.00,,,0.00,724.000000,,2013-03-16 18:43:00,
2013-03-16 11:53:00,77.0,33.0,-100.00,West,274,4.0,9.0,20,0.00,,,0.00,724.000000,,2013-03-16 18:53:00,
2013-03-16 12:02:00,77.0,33.0,-100.00,West,274,4.0,9.0,20,0.00,,,0.00,724.000000,,2013-03-16 19:02:00,
2013-03-16 12:12:00,77.0,33.0,-100.00,West,274,4.0,9.0,20,0.00,,,0.00,724.000000,,2013-03-16 19:12:00,
2013-03-16 12:42:00,79.0,29.0,-100.00,WNW,292,2.0,8.0,16,0.00,,,0.00,827.000000,,2013-03-16 19:42:00,
2013-03-16 12:52:00,79.0,29.0,-100.00,WNW,292,2.0,8.0,16,0.00,,,0.00,827.000000,,2013-03-16 19:52:00,
2013-03-16 13:02:00,79.0,29.0,-100.00,WNW,292,2.0,8.0,16,0.00,,,0.00,827.000000,,2013-03-16 20:02:00,
2013-03-16 13:12:00,79.0,29.0,-100.00,WNW,292,2.0,8.0,16,0.00,,,0.00,827.000000,,2013-03-16 20:12:00,
2013-03-16 13:42:00,79.0,29.0,-100.00,WNW,282,6.0,11.0,16,0.00,,,0.00,862.000000,,2013-03-16 20:42:00,
2013-03-16 13:52:00,79.0,29.0,-100.00,WNW,282,6.0,11.0,16,0.00,,,0.00,862.000000,,2013-03-16 20:52:00,
2013-03-16 14:02:00,79.0,29.0,-100.00,WNW,282,6.0,11.0,16,0.00,,,0.00,862.000000,,2013-03-16 21:02:00,
2013-03-16 14:11:00,79.0,29.0,-100.00,WNW,282,6.0,11.0,16,0.00,,,0.00,862.000000,,2013-03-16 21:11:00,
2013-03-16 14:43:00,81.0,32.0,-100.00,WNW,300,3.0,12.0,17,0.00,,,0.00,824.000000,,2013-03-16 21:43:00,
2013-03-16 14:52:00,81.0,32.0,-100.00,WNW,300,3.0,12.0,17,0.00,,,0.00,824.000000,,2013-03-16 21:52:00,
2013-03-16 15:03:00,81.0,32.0,-100.00,WNW,300,3.0,12.0,17,0.00,,,0.00,824.000000,,2013-03-16 22:03:00,
2013-03-16 15:12:00,81.0,32.0,-100.00,WNW,300,3.0,12.0,17,0.00,,,0.00,824.000000,,2013-03-16 22:12:00,
2013-03-16 15:42:00,82.0,28.0,-100.00,NNW,327,3.0,10.0,14,0.00,,,0.00,721.000000,,2013-03-16 22:42:00,
2013-03-16 15:52:00,82.0,28.0,-100.00,NNW,327,3.0,10.0,14,0.00,,,0.00,721.000000,,2013-03-16 22:52:00,
2013-03-16 16:02:00,82.0,28.0,-100.00,NNW,327,3.0,10.0,14,0.00,,,0.00,721.000000,,2013-03-16 23:02:00,
2013-03-16 16:12:00,82.0,28.0,-100.00,NNW,327,3.0,10.0,14,0.00,,,0.00,721.000000,,2013-03-16 23:12:00,
2013-03-16 16:42:00,81.0,33.0,-100.00,West,263,5.0,15.0,18,0.00,,,0.00,569.000000,,2013-03-16 23:42:00,
2013-03-16 16:52:00,81.0,33.0,-100.00,West,263,5.0,15.0,18,0.00,,,0.00,569.000000,,2013-03-16 23:52:00,
2013-03-16 17:01:00,81.0,33.0,-100.00,West,263,5.0,15.0,18,0.00,,,0.00,569.000000,,2013-03-17 00:01:00,
2013-03-16 17:12:00,81.0,33.0,-100.00,West,263,5.0,15.0,18,0.00,,,0.00,569.000000,,2013-03-17 00:12:00,
2013-03-16 17:42:00,79.0,40.0,-100.00,West,269,7.0,12.0,25,0.00,,,0.00,369.000000,,2013-03-17 00:42:00,
2013-03-16 17:52:00,79.0,40.0,-100.00,West,269,7.0,12.0,25,0.00,,,0.00,369.000000,,2013-03-17 00:52:00,
2013-03-16 18:02:00,79.0,40.0,-100.00,West,269,7.0,12.0,25,0.00,,,0.00,369.000000,,2013-03-17 01:02:00,
2013-03-16 18:12:00,79.0,40.0,-100.00,West,269,7.0,12.0,25,0.00,,,0.00,369.000000,,2013-03-17 01:12:00,
2013-03-16 18:42:00,73.0,44.0,-100.00,West,276,4.0,11.0,35,0.00,,,0.00,161.000000,,2013-03-17 01:42:00,
2013-03-16 18:53:00,73.0,44.0,-100.00,West,276,4.0,11.0,35,0.00,,,0.00,161.000000,,2013-03-17 01:53:00,
2013-03-16 19:02:00,73.0,44.0,-100.00,West,276,4.0,11.0,35,0.00,,,0.00,161.000000,,2013-03-17 02:02:00,
2013-03-16 19:12:00,73.0,44.0,-100.00,West,276,4.0,11.0,35,0.00,,,0.00,161.000000,,2013-03-17 02:12:00,
2013-03-16 19:43:00,64.0,47.0,-100.00,SW,234,3.0,6.0,54,0.00,,,0.00,17.000000,,2013-03-17 02:43:00,
2013-03-16 19:52:00,64.0,47.0,-100.00,SW,234,3.0,6.0,54,0.00,,,0.00,17.000000,,2013-03-17 02:52:00,
2013-03-16 20:02:00,64.0,47.0,-100.00,SW,234,3.0,6.0,54,0.00,,,0.00,17.000000,,2013-03-17 03:02:00,
2013-03-16 20:11:00,64.0,47.0,-100.00,SW,234,3.0,6.0,54,0.00,,,0.00,17.000000,,2013-03-17 03:11:00,
2013-03-16 20:43:00,58.0,47.0,-100.00,SSE,161,0.0,5.0,68,0.00,,,0.00,0.000000,,2013-03-17 03:43:00,
2013-03-16 20:53:00,58.0,47.0,-100.00,SSE,161,0.0,5.0,68,0.00,,,0.00,0.000000,,2013-03-17 03:53:00,
2013-03-16 21:02:00,58.0,47.0,-100.00,SSE,161,0.0,5.0,68,0.00,,,0.00,0.000000,,2013-03-17 04:02:00,
2013-03-16 21:12:00,58.0,47.0,-100.00,SSE,161,0.0,5.0,68,0.00,,,0.00,0.000000,,2013-03-17 04:12:00,
2013-03-16 21:43:00,53.0,47.0,-100.00,East,86,0.0,0.0,79,0.00,,,0.00,0.000000,,2013-03-17 04:43:00,
2013-03-16 21:53:00,53.0,47.0,-100.00,East,86,0.0,0.0,79,0.00,,,0.00,0.000000,,2013-03-17 04:53:00,
2013-03-16 22:12:00,53.0,47.0,-100.00,East,86,0.0,0.0,79,0.00,,,0.00,0.000000,,2013-03-17 05:12:00,
2013-03-16 22:42:00,53.0,47.0,-100.00,WSW,247,0.0,5.0,79,0.00,,,0.00,0.000000,,2013-03-17 05:42:00,
2013-03-16 22:52:00,53.0,47.0,-100.00,WSW,247,0.0,5.0,79,0.00,,,0.00,0.000000,,2013-03-17 05:52:00,
2013-03-16 23:02:00,53.0,47.0,-100.00,WSW,247,0.0,5.0,79,0.00,,,0.00,0.000000,,2013-03-17 06:02:00,
2013-03-16 23:12:00,53.0,47.0,-100.00,WSW,247,0.0,5.0,79,0.00,,,0.00,0.000000,,2013-03-17 06:12:00,
2013-03-16 23:42:00,50.0,46.0,-100.00,East,93,2.0,6.0,86,0.00,,,0.00,0.000000,,2013-03-17 06:42:00,
2013-03-16 23:52:00,50.0,46.0,-100.00,East,93,2.0,6.0,86,0.00,,,0.00,0.000000,,2013-03-17 06:52:00,